Time;durP1;ratioP1;P1;durP2;ratioP2;P2;SDS_P1;SDS_P2;PMS_P1;PMS_P2;Temp;Humidity;BMP_temperature;BMP_pressure;BME280_temperature;BME280_humidity;BME280_pressure;Samples;Min_cycle;Max_cycle;Signal;HPM_P1;HPM_P2
2022/11/04 00:01:44;;;;;;;13.40;10.90;;;11.30;99.90;;;;;;7371568;19;20481;-54
2022/11/04 00:04:12;;;;;;;10.48;9.38;;;11.30;99.90;;;;;;7379741;19;20374;-54
2022/11/04 00:06:39;;;;;;;9.70;7.90;;;11.30;99.90;;;;;;7371874;19;20019;-50
2022/11/04 00:09:08;;;;;;;5.47;3.60;;;11.30;99.90;;;;;;7369240;19;20541;-51
2022/11/04 00:14:22;;;;;;;5.28;3.10;;;11.10;99.90;;;;;;7372380;19;20014;-51
2022/11/04 00:30:34;;;;;;;3.13;2.17;;;10.90;99.90;;;;;;7367079;19;20018;-49
2022/11/04 00:35:49;;;;;;;2.17;1.50;;;10.80;99.90;;;;;;7367036;19;20446;-47
2022/11/04 00:38:17;;;;;;;3.08;1.50;;;10.80;99.90;;;;;;7366354;19;20396;-48
2022/11/04 00:40:44;;;;;;;3.22;1.60;;;10.70;99.90;;;;;;7368340;19;20026;-49
2022/11/04 00:43:10;;;;;;;3.08;1.23;;;10.70;99.90;;;;;;7372451;19;20018;-48
2022/11/04 00:45:38;;;;;;;2.25;0.90;;;10.70;99.90;;;;;;7370109;19;20101;-47
2022/11/04 00:48:05;;;;;;;1.83;0.80;;;10.60;99.90;;;;;;7370053;19;20025;-46
2022/11/04 00:50:31;;;;;;;1.00;0.80;;;10.60;99.90;;;;;;7371764;19;20378;-48
2022/11/04 00:53:02;;;;;;;1.88;0.77;;;10.60;99.90;;;;;;7368579;19;20014;-52
2022/11/04 00:55:28;;;;;;;1.77;0.90;;;10.50;99.90;;;;;;7373811;19;20436;-52
2022/11/04 00:57:56;;;;;;;1.95;0.52;;;10.60;99.90;;;;;;7378068;19;20360;-53
2022/11/04 01:00:22;;;;;;;1.60;0.70;;;10.50;99.90;;;;;;7373731;19;20027;-53
2022/11/04 01:02:49;;;;;;;0.50;0.35;;;10.50;99.90;;;;;;7373492;19;20022;-52
2022/11/04 01:05:15;;;;;;;0.77;0.47;;;10.50;99.90;;;;;;7372103;19;20025;-54
2022/11/04 01:07:41;;;;;;;2.22;0.63;;;10.50;99.90;;;;;;7371329;19;20118;-53
2022/11/04 01:10:08;;;;;;;1.13;0.50;;;10.50;99.90;;;;;;7369951;19;20018;-53
2022/11/04 01:12:34;;;;;;;1.30;0.45;;;10.50;99.90;;;;;;7372023;19;20019;-53
2022/11/04 01:15:00;;;;;;;1.88;0.68;;;10.50;99.90;;;;;;7370869;19;20086;-54
2022/11/04 01:17:26;;;;;;;1.75;0.85;;;10.50;99.90;;;;;;7371244;19;20056;-53
2022/11/04 01:19:53;;;;;;;3.40;1.02;;;10.50;99.90;;;;;;7372450;19;20018;-53
2022/11/04 01:22:19;;;;;;;2.95;1.05;;;10.60;99.90;;;;;;7373559;19;20463;-54
2022/11/04 01:24:45;;;;;;;2.53;1.05;;;10.50;99.90;;;;;;7369791;19;20446;-52
2022/11/04 01:27:11;;;;;;;2.50;1.20;;;10.50;99.90;;;;;;7372135;19;20019;-54
2022/11/04 01:29:37;;;;;;;3.30;1.10;;;10.60;99.90;;;;;;7372337;19;20802;-53
2022/11/04 01:32:04;;;;;;;2.28;0.95;;;10.60;99.90;;;;;;7363962;19;20019;-53
2022/11/04 01:34:31;;;;;;;3.17;1.10;;;10.60;99.90;;;;;;7370402;19;20539;-54
2022/11/04 01:36:57;;;;;;;3.80;1.00;;;10.60;99.90;;;;;;7364998;19;20021;-53
2022/11/04 01:39:23;;;;;;;3.35;1.13;;;10.60;99.90;;;;;;7364126;19;20022;-54
2022/11/04 01:41:49;;;;;;;3.22;1.17;;;10.60;99.90;;;;;;7360758;19;20387;-53
2022/11/04 01:44:41;;;;;;;3.38;1.20;;;10.60;99.90;;;;;;7366021;19;20014;-52
2022/11/04 01:47:22;;;;;;;1.87;0.90;;;10.60;99.90;;;;;;7365217;19;20637;-53
2022/11/04 01:50:07;;;;;;;4.30;1.10;;;10.60;99.90;;;;;;7366126;19;20018;-54
2022/11/04 01:52:40;;;;;;;4.10;1.20;;;10.60;99.90;;;;;;7367686;19;20019;-54
2022/11/04 01:55:14;;;;;;;1.15;0.90;;;10.60;99.90;;;;;;7364241;19;20026;-50
2022/11/04 01:57:44;;;;;;;1.33;0.82;;;10.60;99.90;;;;;;7357884;19;20050;-50
2022/11/04 02:00:11;;;;;;;2.20;0.90;;;10.60;99.90;;;;;;7367319;19;20014;-54
2022/11/04 02:03:01;;;;;;;1.92;0.73;;;10.60;99.90;;;;;;7365351;19;20082;-54
2022/11/04 02:05:29;;;;;;;3.20;0.52;;;10.60;99.90;;;;;;7365540;19;20022;-53
2022/11/04 02:08:00;;;;;;;3.55;0.65;;;10.50;99.90;;;;;;7365808;19;20461;-53
2022/11/04 02:10:28;;;;;;;5.53;0.90;;;10.50;99.90;;;;;;7365853;19;20026;-53
2022/11/04 02:12:57;;;;;;;5.25;0.50;;;10.40;99.90;;;;;;7366899;19;20439;-53
2022/11/04 02:15:41;;;;;;;3.40;0.70;;;10.40;99.90;;;;;;7365019;19;20022;-54
2022/11/04 02:18:34;;;;;;;3.95;1.10;;;10.40;99.90;;;;;;7367307;19;20814;-51
2022/11/04 02:21:06;;;;;;;2.95;1.38;;;10.40;99.90;;;;;;7361804;19;20651;-52
2022/11/04 02:24:03;;;;;;;4.60;1.63;;;10.40;99.90;;;;;;7363625;19;20018;-53
2022/11/04 02:26:52;;;;;;;4.32;1.00;;;10.40;99.90;;;;;;7363954;19;20429;-53
2022/11/04 02:29:57;;;;;;;1.70;0.73;;;10.40;99.90;;;;;;7358684;19;20578;-53
2022/11/04 02:32:37;;;;;;;3.33;1.00;;;10.30;99.90;;;;;;7357641;19;20025;-52
2022/11/04 02:35:03;;;;;;;2.78;0.85;;;10.30;99.90;;;;;;7361102;19;20018;-54
2022/11/04 02:37:46;;;;;;;2.45;0.50;;;10.30;99.90;;;;;;7365721;19;20114;-51
2022/11/04 02:40:15;;;;;;;1.63;0.60;;;10.30;99.90;;;;;;7368082;19;20015;-52
2022/11/04 02:43:05;;;;;;;1.98;0.60;;;10.30;99.90;;;;;;7366480;19;20022;-51
2022/11/04 02:45:45;;;;;;;1.80;0.80;;;10.30;99.90;;;;;;7365671;19;20392;-51
2022/11/04 02:48:41;;;;;;;3.28;1.23;;;10.30;99.90;;;;;;7365769;19;20758;-51
2022/11/04 02:51:14;;;;;;;3.40;1.85;;;10.30;99.90;;;;;;7367283;19;20387;-52
2022/11/04 02:54:09;;;;;;;4.68;2.70;;;10.30;99.90;;;;;;7365726;19;20446;-50
2022/11/04 02:56:43;;;;;;;6.05;3.65;;;10.30;99.90;;;;;;7355501;19;20490;-52
2022/11/04 02:59:16;;;;;;;5.95;4.13;;;10.30;99.90;;;;;;7357500;19;20493;-52
2022/11/04 03:01:44;;;;;;;6.85;3.63;;;10.30;99.90;;;;;;7362559;19;20018;-54
2022/11/04 03:04:16;;;;;;;5.20;2.95;;;10.30;99.90;;;;;;7362425;19;20505;-53
2022/11/04 03:06:46;;;;;;;6.22;2.10;;;10.30;99.90;;;;;;7360082;19;20022;-50
2022/11/04 03:09:15;;;;;;;3.63;1.35;;;10.20;99.90;;;;;;7356474;19;20022;-51
2022/11/04 03:11:46;;;;;;;4.65;1.52;;;10.10;99.90;;;;;;7358441;19;20778;-51
2022/11/04 03:14:21;;;;;;;4.53;1.73;;;10.10;99.90;;;;;;7359708;19;20018;-54
2022/11/04 03:17:02;;;;;;;3.78;2.05;;;10.10;99.90;;;;;;7358628;19;20272;-52
2022/11/04 03:19:33;;;;;;;5.70;2.85;;;10.10;99.90;;;;;;7357842;19;20014;-50
2022/11/04 03:22:19;;;;;;;5.95;2.45;;;10.10;99.90;;;;;;7359676;19;20018;-52
2022/11/04 03:24:47;;;;;;;8.45;3.30;;;10.00;99.90;;;;;;7357860;19;20496;-51
2022/11/04 03:27:25;;;;;;;5.53;3.33;;;10.10;99.90;;;;;;7358617;19;20026;-50
2022/11/04 03:30:03;;;;;;;6.80;3.78;;;10.10;99.90;;;;;;7358624;19;20019;-52
2022/11/04 03:32:36;;;;;;;5.82;3.50;;;10.10;99.90;;;;;;7357152;19;20461;-48
2022/11/04 03:35:03;;;;;;;7.28;4.00;;;10.10;99.90;;;;;;7357041;19;20025;-52
2022/11/04 03:37:29;;;;;;;5.25;2.88;;;10.10;99.90;;;;;;7365957;19;20018;-52
2022/11/04 03:39:55;;;;;;;8.63;3.58;;;10.10;99.90;;;;;;7367082;19;20578;-50
2022/11/04 03:42:23;;;;;;;4.05;2.22;;;10.10;99.90;;;;;;7364872;19;20035;-51
2022/11/04 03:44:52;;;;;;;6.07;2.03;;;10.10;99.90;;;;;;7366013;19;20471;-51
2022/11/04 03:47:23;;;;;;;4.57;1.42;;;10.00;99.90;;;;;;7363088;19;20858;-50
2022/11/04 03:49:58;;;;;;;1.90;1.15;;;9.90;99.90;;;;;;7358572;19;20038;-50
2022/11/04 03:52:24;;;;;;;1.63;0.85;;;9.90;99.90;;;;;;7364100;19;20021;-51
2022/11/04 03:54:50;;;;;;;2.00;0.65;;;9.80;99.90;;;;;;7365384;19;20018;-50
2022/11/04 03:57:29;;;;;;;1.63;0.50;;;9.80;99.90;;;;;;7363404;19;20656;-52
2022/11/04 04:00:37;;;;;;;0.73;0.30;;;9.80;99.90;;;;;;7363632;19;20010;-52
2022/11/04 04:03:10;;;;;;;0.73;0.40;;;9.60;99.90;;;;;;7359422;19;20624;-52
2022/11/04 04:05:52;;;;;;;0.88;0.40;;;9.60;99.90;;;;;;7363847;19;20461;-52
2022/11/04 04:08:43;;;;;;;0.88;0.50;;;9.60;99.90;;;;;;7361077;19;20022;-51
2022/11/04 04:11:16;;;;;;;1.60;0.50;;;9.60;99.90;;;;;;7364779;19;20463;-52
2022/11/04 04:14:03;;;;;;;1.48;1.10;;;9.60;99.90;;;;;;7358646;19;20050;-52
2022/11/04 04:16:42;;;;;;;4.70;1.35;;;9.70;99.90;;;;;;7369729;19;20390;-54
2022/11/04 04:19:15;;;;;;;4.40;1.33;;;9.70;99.90;;;;;;7375817;19;20047;-54
2022/11/04 04:21:44;;;;;;;2.90;1.30;;;9.70;99.90;;;;;;7376377;19;20393;-52
2022/11/04 04:29:45;;;;;;;3.70;1.10;;;9.70;99.90;;;;;;7373432;19;20059;-54
2022/11/04 04:32:13;;;;;;;2.88;1.08;;;9.80;99.90;;;;;;7375354;19;20568;-53
2022/11/04 04:34:40;;;;;;;3.28;1.30;;;9.70;99.90;;;;;;7374592;19;20400;-53
2022/11/04 04:37:17;;;;;;;3.33;1.20;;;9.70;99.90;;;;;;7375190;19;20486;-53
2022/11/04 04:45:30;;;;;;;2.78;1.20;;;9.70;99.90;;;;;;7371420;19;20028;-54
2022/11/04 04:47:56;;;;;;;2.88;1.25;;;9.70;99.90;;;;;;7371485;19;20019;-52
2022/11/04 04:50:29;;;;;;;2.70;1.27;;;9.70;99.90;;;;;;7371531;19;20023;-53
2022/11/04 04:52:58;;;;;;;2.90;0.93;;;9.70;99.90;;;;;;7368654;19;20371;-51
2022/11/04 04:55:24;;;;;;;5.10;1.02;;;9.70;99.90;;;;;;7369063;19;20018;-52
2022/11/04 04:57:50;;;;;;;2.30;0.90;;;9.60;99.90;;;;;;7370368;19;20014;-54
2022/11/04 05:00:19;;;;;;;4.25;0.70;;;9.60;99.90;;;;;;7371617;19;20549;-54
2022/11/04 05:02:46;;;;;;;1.85;0.60;;;9.60;99.90;;;;;;7371954;19;20030;-55
2022/11/04 05:05:13;;;;;;;0.43;0.40;;;9.60;99.90;;;;;;7373898;19;20057;-55
2022/11/04 05:07:40;;;;;;;2.55;0.60;;;9.50;99.90;;;;;;7374633;19;20014;-54
2022/11/04 05:10:09;;;;;;;4.25;1.08;;;9.50;99.90;;;;;;7371802;19;20052;-54
2022/11/04 05:15:21;;;;;;;2.08;0.70;;;9.40;99.90;;;;;;7372916;19;20014;-54
2022/11/04 05:17:52;;;;;;;1.92;0.60;;;9.40;99.90;;;;;;7372308;19;20034;-55
2022/11/04 05:20:18;;;;;;;2.22;0.60;;;9.30;99.90;;;;;;7370006;19;20022;-54
2022/11/04 05:22:44;;;;;;;1.80;0.60;;;9.30;99.90;;;;;;7366703;19;20540;-54
2022/11/04 05:25:10;;;;;;;1.02;0.52;;;9.30;99.90;;;;;;7362106;19;20022;-53
2022/11/04 05:27:37;;;;;;;2.00;0.50;;;9.30;99.90;;;;;;7366564;19;20373;-54
2022/11/04 05:30:03;;;;;;;0.82;0.60;;;9.30;99.90;;;;;;7372217;19;20621;-55
2022/11/04 05:32:32;;;;;;;1.35;0.50;;;9.30;99.90;;;;;;7370918;19;20038;-54
2022/11/04 05:34:59;;;;;;;6.03;0.95;;;9.30;99.90;;;;;;7371120;19;20018;-52
2022/11/04 05:37:25;;;;;;;1.65;0.80;;;9.30;99.90;;;;;;7374467;19;20037;-52
2022/11/04 05:39:52;;;;;;;0.85;0.70;;;9.30;99.90;;;;;;7367335;19;20688;-53
2022/11/04 05:42:18;;;;;;;1.50;0.60;;;9.20;99.90;;;;;;7373661;19;20379;-54
2022/11/04 05:44:45;;;;;;;1.95;0.80;;;9.20;99.90;;;;;;7367198;19;20029;-51
2022/11/04 05:47:11;;;;;;;1.70;0.65;;;9.10;99.90;;;;;;7369838;19;20029;-53
2022/11/04 05:49:37;;;;;;;2.58;0.70;;;9.00;99.90;;;;;;7368515;19;20021;-50
2022/11/04 05:52:04;;;;;;;2.42;0.70;;;9.00;99.90;;;;;;7362630;19;20019;-51
2022/11/04 05:54:30;;;;;;;2.00;0.57;;;8.90;99.90;;;;;;7360595;19;20376;-52
2022/11/04 05:56:57;;;;;;;2.83;0.80;;;8.90;99.90;;;;;;7367827;19;20026;-53
2022/11/04 05:59:23;;;;;;;2.92;0.85;;;8.90;99.90;;;;;;7366351;19;20025;-52
2022/11/04 06:01:49;;;;;;;4.53;0.60;;;8.90;99.90;;;;;;7367890;19;20576;-52
2022/11/04 06:04:18;;;;;;;2.15;0.70;;;8.90;99.90;;;;;;7368637;19;20014;-49
2022/11/04 06:06:44;;;;;;;2.67;0.60;;;8.90;99.90;;;;;;7363202;19;20022;-52
2022/11/04 06:09:10;;;;;;;3.60;0.70;;;8.90;99.90;;;;;;7367272;19;20015;-49
2022/11/04 06:11:38;;;;;;;1.90;0.50;;;8.90;99.90;;;;;;7358996;19;20465;-51
2022/11/04 06:14:04;;;;;;;3.67;0.75;;;8.80;99.90;;;;;;7358289;19;20291;-53
2022/11/04 06:16:30;;;;;;;4.13;0.70;;;8.80;99.90;;;;;;7353701;19;20062;-49
2022/11/04 06:18:57;;;;;;;5.85;1.00;;;8.80;99.90;;;;;;7358015;19;20113;-49
2022/11/04 06:21:29;;;;;;;3.67;0.93;;;8.80;99.90;;;;;;7356831;19;20018;-49
2022/11/04 06:23:56;;;;;;;2.40;1.10;;;8.80;99.90;;;;;;7356819;19;20373;-53
2022/11/04 06:26:25;;;;;;;5.47;1.50;;;8.80;99.90;;;;;;7358858;19;20022;-50
2022/11/04 06:28:51;;;;;;;4.40;1.38;;;8.80;99.90;;;;;;7354116;19;20046;-49
2022/11/04 06:31:19;;;;;;;5.47;2.20;;;8.80;99.90;;;;;;7359369;19;20018;-52
2022/11/04 06:33:45;;;;;;;2.53;1.52;;;8.70;99.90;;;;;;7353026;19;20025;-49
2022/11/04 06:36:14;;;;;;;4.65;1.85;;;8.60;99.90;;;;;;7361022;19;20018;-51
2022/11/04 06:38:41;;;;;;;5.32;2.28;;;8.60;99.90;;;;;;7357491;19;20023;-48
2022/11/04 06:41:14;;;;;;;4.35;2.28;;;8.50;99.90;;;;;;7358607;19;20569;-48
2022/11/04 06:43:41;;;;;;;5.65;2.40;;;8.50;99.90;;;;;;7356096;19;20023;-52
2022/11/04 06:46:24;;;;;;;8.20;2.15;;;8.40;99.90;;;;;;7354733;19;20066;-48
2022/11/04 06:48:51;;;;;;;5.97;2.55;;;8.30;99.90;;;;;;7355894;19;20541;-49
2022/11/04 06:51:18;;;;;;;5.40;2.42;;;8.30;99.90;;;;;;7359603;19;21059;-52
2022/11/04 06:53:44;;;;;;;5.03;2.63;;;8.30;99.90;;;;;;7355364;19;20018;-49
2022/11/04 06:56:11;;;;;;;2.15;1.35;;;8.30;99.90;;;;;;7350207;19;20559;-50
2022/11/04 06:58:37;;;;;;;4.30;1.60;;;8.20;99.90;;;;;;7354038;19;20022;-52
2022/11/04 07:01:03;;;;;;;4.72;1.52;;;8.20;99.90;;;;;;7358054;19;20026;-52
2022/11/04 07:03:30;;;;;;;4.80;1.40;;;8.20;99.90;;;;;;7350172;19;20516;-52
2022/11/04 07:05:57;;;;;;;2.33;1.33;;;8.10;99.90;;;;;;7353230;19;20091;-49
2022/11/04 07:08:23;;;;;;;5.50;1.65;;;8.20;99.90;;;;;;7356950;19;20021;-49
2022/11/04 07:10:49;;;;;;;2.70;1.30;;;8.20;99.90;;;;;;7358779;19;20018;-52
2022/11/04 07:13:16;;;;;;;4.68;1.67;;;8.20;99.90;;;;;;7363762;19;20018;-50
2022/11/04 07:15:42;;;;;;;3.45;1.45;;;8.10;99.90;;;;;;7357816;19;20015;-49
2022/11/04 07:18:08;;;;;;;3.47;1.25;;;8.10;99.90;;;;;;7361592;19;20639;-48
2022/11/04 07:20:38;;;;;;;3.50;1.45;;;8.10;99.90;;;;;;7356170;19;20038;-52
2022/11/04 07:23:05;;;;;;;3.25;1.45;;;8.10;99.90;;;;;;7368436;19;20018;-49
2022/11/04 07:25:31;;;;;;;3.92;1.60;;;8.20;99.90;;;;;;7365572;19;20018;-49
2022/11/04 07:27:57;;;;;;;3.22;1.70;;;8.20;99.90;;;;;;7365621;19;20501;-51
2022/11/04 07:30:24;;;;;;;2.53;1.45;;;8.30;99.90;;;;;;7365294;19;20021;-52
2022/11/04 07:32:50;;;;;;;4.32;2.28;;;8.40;99.90;;;;;;7360772;19;20026;-48
2022/11/04 07:35:16;;;;;;;5.13;2.15;;;8.50;99.90;;;;;;7363087;19;20023;-49
2022/11/04 07:37:43;;;;;;;6.50;2.20;;;8.70;99.90;;;;;;7359838;19;20838;-51
2022/11/04 07:40:10;;;;;;;5.47;2.60;;;8.80;99.90;;;;;;7360608;19;20386;-52
2022/11/04 07:42:37;;;;;;;6.15;2.65;;;8.90;99.90;;;;;;7362590;19;20026;-48
2022/11/04 07:45:07;;;;;;;5.10;2.35;;;8.90;99.90;;;;;;7363745;19;20382;-48
2022/11/04 07:47:33;;;;;;;6.82;3.00;;;8.90;99.90;;;;;;7357811;19;20022;-53
2022/11/04 07:49:59;;;;;;;5.03;2.28;;;9.00;99.90;;;;;;7364903;19;20129;-53
2022/11/04 07:52:26;;;;;;;5.10;2.53;;;8.90;99.90;;;;;;7365156;19;20022;-50
2022/11/04 07:54:52;;;;;;;4.95;2.92;;;8.80;99.90;;;;;;7365447;19;20053;-48
2022/11/04 07:57:18;;;;;;;7.10;2.95;;;8.80;99.90;;;;;;7362500;19;20052;-49
2022/11/04 07:59:44;;;;;;;5.32;2.58;;;8.80;99.90;;;;;;7361522;19;20022;-49
2022/11/04 08:02:11;;;;;;;6.43;2.80;;;8.80;99.90;;;;;;7363181;19;20018;-52
2022/11/04 08:04:37;;;;;;;6.35;2.85;;;8.80;99.90;;;;;;7361224;19;20066;-48
2022/11/04 08:07:06;;;;;;;5.40;2.67;;;8.90;99.90;;;;;;7364001;19;20019;-50
2022/11/04 08:09:32;;;;;;;5.60;3.30;;;8.90;99.90;;;;;;7365116;19;20128;-50
2022/11/04 08:11:59;;;;;;;5.65;2.83;;;9.00;99.90;;;;;;7363010;19;20086;-51
2022/11/04 08:14:25;;;;;;;6.30;3.42;;;9.00;99.90;;;;;;7362916;19;20045;-52
2022/11/04 08:16:51;;;;;;;5.40;3.20;;;9.10;99.90;;;;;;7361889;19;20018;-51
2022/11/04 08:19:18;;;;;;;8.90;3.90;;;9.50;99.90;;;;;;7364806;19;20014;-51
2022/11/04 08:21:44;;;;;;;6.68;2.90;;;10.20;99.90;;;;;;7357184;19;20029;-51
2022/11/04 08:24:10;;;;;;;6.22;2.58;;;10.90;99.90;;;;;;7360012;19;20363;-51
2022/11/04 08:26:37;;;;;;;5.43;2.67;;;11.60;99.90;;;;;;7359830;19;20019;-53
2022/11/04 08:29:07;;;;;;;4.90;2.40;;;12.20;99.90;;;;;;7355179;19;20015;-49
2022/11/04 08:31:36;;;;;;;3.67;2.33;;;12.70;99.90;;;;;;7358015;19;20077;-52
2022/11/04 08:34:02;;;;;;;4.05;2.20;;;13.10;99.90;;;;;;7354451;19;20018;-54
2022/11/04 08:36:33;;;;;;;3.03;1.98;;;13.30;99.90;;;;;;7357449;19;20312;-53
2022/11/04 08:39:00;;;;;;;3.97;2.13;;;13.60;99.90;;;;;;7358521;19;20019;-48
2022/11/04 08:41:29;;;;;;;3.85;1.92;;;13.90;99.90;;;;;;7353992;19;20064;-53
2022/11/04 08:43:59;;;;;;;3.22;1.70;;;13.50;99.90;;;;;;7355860;19;20127;-53
2022/11/04 08:46:34;;;;;;;3.70;1.92;;;13.30;99.90;;;;;;7358235;19;20025;-54
2022/11/04 08:49:00;;;;;;;4.43;1.92;;;13.00;99.90;;;;;;7353858;19;20022;-52
2022/11/04 08:51:28;;;;;;;3.92;1.92;;;12.60;99.90;;;;;;7356161;19;20052;-54
2022/11/04 08:53:55;;;;;;;2.90;1.55;;;12.40;99.90;;;;;;7357246;19;20441;-53
2022/11/04 08:56:27;;;;;;;3.40;1.67;;;12.30;99.90;;;;;;7357068;19;20022;-53
2022/11/04 08:58:53;;;;;;;2.90;1.90;;;12.40;99.90;;;;;;7359294;19;20052;-54
2022/11/04 09:01:21;;;;;;;5.70;2.25;;;13.20;99.90;;;;;;7357556;19;20044;-54
2022/11/04 09:03:48;;;;;;;3.63;2.67;;;13.50;99.90;;;;;;7360905;19;20043;-49
2022/11/04 09:06:18;;;;;;;4.43;2.80;;;14.00;99.90;;;;;;7358082;19;20038;-50
2022/11/04 09:08:45;;;;;;;6.40;3.33;;;14.10;99.90;;;;;;7357617;19;20047;-52
2022/11/04 09:11:14;;;;;;;5.88;4.05;;;14.50;99.90;;;;;;7361014;19;20397;-50
2022/11/04 09:13:41;;;;;;;5.50;4.20;;;14.80;99.90;;;;;;7358088;19;20568;-50
2022/11/04 09:16:09;;;;;;;6.13;4.03;;;14.90;99.90;;;;;;7353426;19;20026;-53
2022/11/04 09:18:35;;;;;;;7.57;4.80;;;15.40;99.90;;;;;;7358770;19;20763;-53
2022/11/04 09:21:03;;;;;;;7.05;4.47;;;15.50;99.90;;;;;;7362337;19;20018;-53
2022/11/04 09:23:30;;;;;;;8.30;5.13;;;15.80;99.90;;;;;;7359994;19;20019;-53
2022/11/04 09:25:57;;;;;;;5.88;4.85;;;15.90;99.90;;;;;;7358240;19;20025;-53
2022/11/04 09:28:24;;;;;;;7.43;5.28;;;16.20;99.90;;;;;;7359797;19;20019;-51
2022/11/04 09:30:51;;;;;;;7.07;5.30;;;16.40;99.90;;;;;;7360902;19;20033;-51
2022/11/04 09:33:17;;;;;;;6.78;5.25;;;16.30;99.90;;;;;;7358570;19;20452;-52
2022/11/04 09:35:43;;;;;;;7.15;5.82;;;16.40;99.90;;;;;;7353563;19;20030;-52
2022/11/04 09:38:10;;;;;;;7.50;6.18;;;16.20;99.90;;;;;;7355481;19;20026;-52
2022/11/04 09:40:37;;;;;;;9.02;6.47;;;15.70;99.90;;;;;;7357711;19;20014;-54
2022/11/04 09:43:36;;;;;;;8.95;6.93;;;14.70;99.90;;;;;;7357756;19;20019;-54
2022/11/04 09:46:03;;;;;;;9.93;7.47;;;14.00;99.90;;;;;;7359363;19;20015;-54
2022/11/04 09:48:39;;;;;;;10.30;7.15;;;13.70;99.90;;;;;;7353494;19;20485;-51
2022/11/04 09:51:06;;;;;;;9.65;7.38;;;13.30;99.90;;;;;;7361138;19;20051;-53
2022/11/04 09:53:50;;;;;;;9.02;7.30;;;13.60;99.90;;;;;;7361115;19;20771;-52
2022/11/04 09:56:24;;;;;;;10.05;7.25;;;13.40;99.90;;;;;;7356690;19;20094;-49
2022/11/04 09:58:51;;;;;;;8.55;6.57;;;13.30;99.90;;;;;;7356084;19;20592;-53
2022/11/04 10:01:17;;;;;;;8.95;6.30;;;13.10;99.90;;;;;;7358594;19;20022;-55
2022/11/04 10:04:02;;;;;;;8.23;6.60;;;12.80;99.90;;;;;;7357207;19;20604;-54
2022/11/04 10:06:51;;;;;;;10.15;7.55;;;12.50;99.90;;;;;;7359826;19;20029;-55
2022/11/04 10:09:43;;;;;;;9.80;7.97;;;12.40;99.90;;;;;;7358825;19;20064;-55
2022/11/04 10:12:24;;;;;;;12.45;9.55;;;12.60;99.90;;;;;;7353054;19;20495;-53
2022/11/04 10:14:56;;;;;;;11.35;10.15;;;13.80;99.90;;;;;;7353731;19;20641;-55
2022/11/04 10:17:44;;;;;;;11.43;8.02;;;15.10;99.90;;;;;;7357512;19;20015;-53
2022/11/04 10:20:38;;;;;;;12.52;8.98;;;15.10;99.90;;;;;;7356639;19;20485;-54
2022/11/04 10:23:20;;;;;;;13.18;8.88;;;14.70;99.90;;;;;;7353143;19;20023;-54
2022/11/04 10:25:52;;;;;;;12.30;9.10;;;14.00;99.90;;;;;;7354680;19;20018;-53
2022/11/04 10:28:25;;;;;;;13.43;9.50;;;14.30;99.90;;;;;;7357500;19;20343;-54
2022/11/04 10:30:51;;;;;;;12.50;10.02;;;15.00;99.90;;;;;;7348338;19;20528;-55
2022/11/04 10:33:36;;;;;;;12.38;9.50;;;15.20;99.90;;;;;;7352885;19;20133;-55
2022/11/04 10:36:08;;;;;;;12.73;9.50;;;15.40;99.90;;;;;;7351168;19;20027;-55
2022/11/04 10:38:51;;;;;;;15.68;10.32;;;15.90;99.90;;;;;;7352479;19;20018;-54
2022/11/04 10:41:27;;;;;;;13.35;9.30;;;16.70;99.90;;;;;;7357570;19;20535;-54
2022/11/04 10:44:12;;;;;;;10.80;8.82;;;17.10;99.90;;;;;;7358295;19;20025;-55
2022/11/04 10:47:03;;;;;;;10.75;8.68;;;16.80;99.90;;;;;;7363734;19;20021;-52
2022/11/04 10:49:32;;;;;;;11.23;9.20;;;16.50;99.90;;;;;;7362382;19;20030;-53
2022/11/04 10:51:59;;;;;;;12.20;8.63;;;16.90;99.90;;;;;;7363580;19;20029;-54
2022/11/04 10:54:26;;;;;;;13.15;8.25;;;17.40;99.90;;;;;;7362430;19;20901;-51
2022/11/04 10:56:54;;;;;;;9.27;8.00;;;17.40;99.90;;;;;;7361959;19;20111;-51
2022/11/04 10:59:33;;;;;;;11.38;8.30;;;17.00;99.90;;;;;;7364517;19;20429;-53
2022/11/04 11:02:01;;;;;;;10.30;7.85;;;17.00;99.90;;;;;;7360902;19;20051;-53
2022/11/04 11:04:31;;;;;;;11.65;7.97;;;17.40;99.90;;;;;;7357888;19;20469;-52
2022/11/04 11:07:00;;;;;;;9.00;7.50;;;18.10;99.90;;;;;;7357068;19;20086;-53
2022/11/04 11:09:29;;;;;;;9.95;8.35;;;18.00;99.90;;;;;;7153416;19;3009187;-52
2022/11/04 11:12:00;;;;;;;11.43;8.52;;;17.20;99.90;;;;;;7363416;19;20856;-54
2022/11/04 11:14:29;;;;;;;11.10;9.27;;;16.50;99.90;;;;;;7365334;19;20474;-52
2022/11/04 11:17:10;;;;;;;10.88;8.57;;;16.70;99.90;;;;;;7364186;19;20019;-49
2022/11/04 11:19:58;;;;;;;11.20;8.43;;;17.70;99.90;;;;;;7365472;19;20022;-53
2022/11/04 11:22:30;;;;;;;11.18;7.85;;;18.50;99.90;;;;;;7364038;19;20829;-49
2022/11/04 11:25:33;;;;;;;10.90;8.02;;;18.60;99.90;;;;;;7365137;19;20015;-51
2022/11/04 11:28:08;;;;;;;8.75;7.05;;;18.10;99.90;;;;;;7368507;19;20530;-53
2022/11/04 11:30:40;;;;;;;9.75;7.68;;;17.40;99.90;;;;;;7364426;19;20019;-52
2022/11/04 11:33:30;;;;;;;8.70;5.72;;;17.00;99.90;;;;;;7364778;19;20014;-49
2022/11/04 11:36:10;;;;;;;7.30;6.00;;;17.60;99.90;;;;;;7360732;19;20621;-52
2022/11/04 11:38:49;;;;;;;8.35;6.07;;;18.60;99.90;;;;;;7368030;19;20019;-51
2022/11/04 11:41:20;;;;;;;6.68;5.15;;;19.40;99.90;;;;;;7367396;19;20018;-55
2022/11/04 11:43:50;;;;;;;7.13;4.97;;;19.80;99.90;;;;;;7367177;19;20078;-54
2022/11/04 11:46:26;;;;;;;8.45;4.57;;;20.40;99.90;;;;;;7369353;19;20126;-51
2022/11/04 11:48:59;;;;;;;6.80;3.20;;;20.60;99.90;;;;;;7362581;19;20026;-49
2022/11/04 11:51:35;;;;;;;4.38;2.55;;;20.90;99.90;;;;;;7359598;19;20125;-52
2022/11/04 11:54:32;;;;;;;6.25;3.63;;;20.30;99.90;;;;;;7365119;19;20037;-53
2022/11/04 11:57:14;;;;;;;6.55;4.00;;;19.70;99.90;;;;;;7362312;19;20018;-53
2022/11/04 11:59:51;;;;;;;6.32;4.20;;;18.50;99.90;;;;;;7364020;19;20598;-54
2022/11/04 12:02:48;;;;;;;5.25;3.58;;;17.60;99.90;;;;;;7365638;19;20089;-55
2022/11/04 12:05:18;;;;;;;6.25;2.50;;;18.10;99.90;;;;;;7362848;19;20477;-50
2022/11/04 12:07:44;;;;;;;6.13;2.30;;;17.90;99.90;;;;;;7364412;19;20030;-53
2022/11/04 12:10:24;;;;;;;29.52;23.77;;;18.10;99.90;;;;;;7362596;19;20603;-57
2022/11/04 12:12:57;;;;;;;6.32;4.47;;;18.30;99.90;;;;;;7359239;19;20025;-56
2022/11/04 12:15:38;;;;;;;8.98;5.32;;;18.60;99.90;;;;;;7359521;19;20010;-57
2022/11/04 12:18:28;;;;;;;;;;;19.20;99.90;;;;;;7359840;19;20509;-57
2022/11/04 12:21:10;;;;;;;29.30;12.32;;;19.20;99.90;;;;;;7355742;19;20381;-57
2022/11/04 12:23:42;;;;;;;;;;;19.40;99.90;;;;;;7362341;19;20011;-58
2022/11/04 12:26:13;;;;;;;10.13;6.68;;;18.60;99.90;;;;;;7360126;19;19919;-54
2022/11/04 12:29:13;;;;;;;;;;;17.80;99.90;;;;;;7358272;19;20657;-54
2022/11/04 12:31:56;;;;;;;11.93;6.20;;;16.90;99.90;;;;;;7357347;19;20026;-53
2022/11/04 12:34:48;;;;;;;5.93;1.45;;;16.10;99.90;;;;;;7358703;19;20440;-53
2022/11/04 12:37:42;;;;;;;3.10;0.93;;;15.50;99.90;;;;;;7371222;19;20010;-59
2022/11/04 12:40:20;;;;;;;3.80;0.93;;;14.80;99.90;;;;;;7369214;19;20050;-60
2022/11/04 12:43:08;;;;;;;4.57;2.05;;;14.50;99.90;;;;;;7362377;19;20768;-58
2022/11/04 12:46:06;;;;;;;6.85;1.60;;;14.00;99.90;;;;;;7358075;19;20029;-60
2022/11/04 12:49:05;;;;;;;5.25;1.60;;;13.70;99.90;;;;;;7363236;19;20018;-61
2022/11/04 12:51:59;;;;;;;10.73;4.88;;;13.40;99.90;;;;;;7360470;19;21792;-62
2022/11/04 12:54:37;;;;;;;9.90;6.47;;;13.10;99.90;;;;;;7356889;19;20141;-59
2022/11/04 12:57:31;;;;;;;4.90;2.20;;;13.00;99.90;;;;;;7366066;19;20014;-58
2022/11/04 13:00:05;;;;;;;5.03;0.75;;;12.70;99.90;;;;;;7362690;19;20019;-57
2022/11/04 13:02:58;;;;;;;2.85;0.50;;;12.30;99.90;;;;;;7364917;19;20031;-54
2022/11/04 13:05:52;;;;;;;6.15;1.02;;;12.00;99.90;;;;;;7357046;19;20023;-54
2022/11/04 13:08:41;;;;;;;3.45;0.50;;;11.70;99.90;;;;;;7353575;19;20510;-53
2022/11/04 13:11:24;;;;;;;2.42;0.68;;;11.50;99.90;;;;;;7358101;19;20011;-53
2022/11/04 13:14:06;;;;;;;1.88;0.47;;;11.30;99.90;;;;;;7359860;19;20382;-52
2022/11/04 13:16:38;;;;;;;2.72;0.57;;;11.10;99.90;;;;;;7357551;19;20474;-53
2022/11/04 13:19:22;;;;;;;4.97;0.90;;;11.00;99.90;;;;;;7356288;19;20498;-55
2022/11/04 13:21:49;;;;;;;5.30;0.70;;;11.00;99.90;;;;;;7355838;19;20019;-52
2022/11/04 13:24:29;;;;;;;3.90;0.80;;;10.90;99.90;;;;;;7349623;19;20026;-52
2022/11/04 13:27:00;;;;;;;6.55;1.33;;;10.90;99.90;;;;;;7352032;19;20010;-46
2022/11/04 13:29:27;;;;;;;;;;;10.90;99.90;;;;;;7352229;19;20014;-47
2022/11/04 13:32:17;;;;;;;3.58;0.90;;;10.80;99.90;;;;;;7355049;19;19989;-50
2022/11/04 13:34:56;;;;;;;3.60;0.70;;;10.80;99.90;;;;;;7354960;19;20011;-53
2022/11/04 13:37:39;;;;;;;2.25;0.90;;;11.20;99.90;;;;;;7356733;19;20091;-52
2022/11/04 13:40:16;;;;;;;4.05;1.10;;;11.20;99.90;;;;;;7356493;19;20029;-48
2022/11/04 13:43:37;;;;;;;2.00;0.65;;;11.70;99.90;;;;;;7355922;19;20124;-50
2022/11/04 13:45:55;;;;;;;4.90;0.80;;;13.00;99.90;;;;;;7355303;19;20023;-49
2022/11/04 13:48:29;;;;;;;2.75;0.55;;;14.50;99.90;;;;;;7355164;19;20014;-50
2022/11/04 13:50:59;;;;;;;2.47;0.60;;;14.30;99.90;;;;;;7355531;19;20530;-48
2022/11/04 13:54:01;;;;;;;4.90;0.80;;;13.90;99.90;;;;;;7358811;19;20011;-50